Time;durP1;ratioP1;P1;durP2;ratioP2;P2;SDS_P1;SDS_P2;PMS_P1;PMS_P2;Temp;Humidity;BMP_temperature;BMP_pressure;BME280_temperature;BME280_humidity;BME280_pressure;Samples;Min_cycle;Max_cycle;Signal;HPM_P1;HPM_P2
2023/12/18 00:01:10;;;;;;;1.50;0.65;;;7.90;84.00;;;;;;4974245;28;20062;-80
2023/12/18 00:03:36;;;;;;;1.92;0.60;;;7.80;84.00;;;;;;4949697;28;20043;-80
2023/12/18 00:06:03;;;;;;;1.67;0.77;;;7.80;84.00;;;;;;4949963;29;20027;-80
2023/12/18 00:08:29;;;;;;;2.58;0.68;;;7.80;83.90;;;;;;4949979;28;21400;-80
2023/12/18 00:10:55;;;;;;;2.70;0.80;;;7.80;83.80;;;;;;4949883;28;20043;-80
2023/12/18 00:13:21;;;;;;;2.97;1.15;;;7.80;83.80;;;;;;4949485;28;20040;-81
2023/12/18 00:15:47;;;;;;;3.03;1.02;;;7.80;83.80;;;;;;4917220;28;20031;-80
2023/12/18 00:18:13;;;;;;;1.70;0.70;;;7.80;83.80;;;;;;4975361;28;20042;-80
2023/12/18 00:20:39;;;;;;;2.05;0.52;;;7.80;84.20;;;;;;4949801;28;20580;-80
2023/12/18 00:23:05;;;;;;;1.38;0.43;;;7.80;83.90;;;;;;4965287;28;20043;-80
2023/12/18 00:25:31;;;;;;;1.83;0.43;;;7.80;83.80;;;;;;4949868;28;20438;-81
2023/12/18 00:27:57;;;;;;;2.83;0.90;;;7.80;83.80;;;;;;4950313;28;20062;-80
2023/12/18 00:30:23;;;;;;;4.65;0.85;;;7.80;83.70;;;;;;4950594;29;20055;-81
2023/12/18 00:32:49;;;;;;;3.45;0.93;;;7.80;83.70;;;;;;4974081;28;21239;-81
2023/12/18 00:35:15;;;;;;;2.78;0.63;;;7.80;83.70;;;;;;4950341;28;20505;-81
2023/12/18 00:37:41;;;;;;;2.92;0.63;;;7.70;83.70;;;;;;4950053;28;20645;-81
2023/12/18 00:40:08;;;;;;;1.60;0.50;;;7.80;83.80;;;;;;4950015;28;20630;-80
2023/12/18 00:42:34;;;;;;;3.15;0.55;;;7.70;83.80;;;;;;4929104;29;20034;-80
2023/12/18 00:45:00;;;;;;;2.85;0.45;;;7.80;83.90;;;;;;4949812;29;20464;-80
2023/12/18 00:47:27;;;;;;;2.85;0.77;;;7.70;84.00;;;;;;4948974;28;20047;-80
2023/12/18 00:49:53;;;;;;;2.03;0.50;;;7.80;84.00;;;;;;4964985;28;20039;-81
2023/12/18 00:52:19;;;;;;;1.92;0.70;;;7.70;84.00;;;;;;4949066;28;20046;-81
2023/12/18 00:54:45;;;;;;;0.82;0.77;;;7.80;83.80;;;;;;4949308;28;20047;-80
2023/12/18 00:57:11;;;;;;;1.75;0.63;;;7.80;84.10;;;;;;4974152;28;20052;-81
2023/12/18 00:59:37;;;;;;;2.50;0.55;;;7.70;83.90;;;;;;4965031;28;20031;-81
2023/12/18 01:02:03;;;;;;;2.42;0.77;;;7.70;83.70;;;;;;4949907;28;20042;-81
2023/12/18 01:04:29;;;;;;;1.13;0.60;;;7.70;83.50;;;;;;4949620;28;21014;-81
2023/12/18 01:06:55;;;;;;;1.40;0.70;;;7.70;83.50;;;;;;4948457;28;20059;-81
2023/12/18 01:09:22;;;;;;;2.47;0.73;;;7.70;83.30;;;;;;4948384;29;20031;-81
2023/12/18 01:11:49;;;;;;;2.03;0.57;;;7.70;83.50;;;;;;4948100;28;20031;-81
2023/12/18 01:14:15;;;;;;;2.35;0.70;;;7.70;83.50;;;;;;4959715;28;20529;-81
2023/12/18 01:16:41;;;;;;;1.73;0.50;;;7.70;83.50;;;;;;4956670;28;20067;-81
2023/12/18 01:19:07;;;;;;;1.60;0.60;;;7.70;83.40;;;;;;4949390;28;20054;-81
2023/12/18 01:21:34;;;;;;;1.60;0.63;;;7.70;83.30;;;;;;4949026;28;20425;-81
2023/12/18 01:24:00;;;;;;;2.58;0.70;;;7.70;83.30;;;;;;4948360;28;20130;-82
2023/12/18 01:26:26;;;;;;;2.10;0.80;;;7.70;83.10;;;;;;4973822;28;20143;-80
2023/12/18 01:28:51;;;;;;;2.72;1.00;;;7.70;83.20;;;;;;4948231;29;20134;-80
2023/12/18 01:31:22;;;;;;;1.30;0.40;;;7.70;83.10;;;;;;4932132;29;20422;-81
2023/12/18 01:33:48;;;;;;;1.50;0.40;;;7.70;82.90;;;;;;4949311;28;20036;-80
2023/12/18 01:36:14;;;;;;;3.63;0.47;;;7.70;82.80;;;;;;4931970;29;20043;-83
2023/12/18 01:38:40;;;;;;;1.88;0.60;;;7.70;83.10;;;;;;4947857;28;20047;-83
2023/12/18 01:41:06;;;;;;;2.25;0.88;;;7.70;83.40;;;;;;4929602;29;20050;-80
2023/12/18 01:43:32;;;;;;;1.67;0.77;;;7.70;83.40;;;;;;4932047;29;20038;-82
2023/12/18 01:46:00;;;;;;;1.67;0.40;;;7.70;83.50;;;;;;4948801;28;20603;-83
2023/12/18 01:48:26;;;;;;;3.28;0.75;;;7.70;83.60;;;;;;4947964;29;20047;-81
2023/12/18 01:50:54;;;;;;;2.47;0.60;;;7.70;84.40;;;;;;4947337;29;20042;-82
2023/12/18 01:53:30;;;;;;;3.05;0.50;;;7.70;83.60;;;;;;4963041;28;20075;-81
2023/12/18 01:55:57;;;;;;;2.13;0.65;;;7.70;84.00;;;;;;4947531;28;20050;-81
2023/12/18 01:58:24;;;;;;;1.25;0.45;;;7.70;83.90;;;;;;4947296;28;20044;-81
2023/12/18 02:00:52;;;;;;;1.83;0.50;;;7.70;84.00;;;;;;4946193;28;20034;-82
2023/12/18 02:03:19;;;;;;;3.40;0.75;;;7.70;84.40;;;;;;4948262;29;20086;-82
2023/12/18 02:05:46;;;;;;;1.98;0.50;;;7.70;83.90;;;;;;4946825;29;20039;-82
2023/12/18 02:08:12;;;;;;;1.88;0.50;;;7.70;84.50;;;;;;4948146;28;20134;-82
2023/12/18 02:10:39;;;;;;;1.67;0.70;;;7.70;84.40;;;;;;4955795;28;20043;-81
2023/12/18 02:13:05;;;;;;;1.10;0.52;;;7.70;84.70;;;;;;4946568;28;20561;-82
2023/12/18 02:15:31;;;;;;;2.15;0.40;;;7.70;85.10;;;;;;4947760;29;20031;-82
2023/12/18 02:17:57;;;;;;;1.90;0.65;;;7.70;84.90;;;;;;4942264;29;20039;-82
2023/12/18 02:20:23;;;;;;;2.83;0.50;;;7.70;84.50;;;;;;4960023;28;20413;-82
2023/12/18 02:22:48;;;;;;;2.13;0.70;;;7.70;84.40;;;;;;4948368;28;20122;-82
2023/12/18 02:25:19;;;;;;;1.77;0.63;;;7.70;84.00;;;;;;4948286;28;20126;-82
2023/12/18 02:27:46;;;;;;;3.65;0.80;;;7.70;83.90;;;;;;4946913;28;20038;-82
2023/12/18 02:30:17;;;;;;;2.03;0.60;;;7.70;83.80;;;;;;4946726;29;20450;-82
2023/12/18 02:32:43;;;;;;;2.90;0.50;;;7.70;83.70;;;;;;4971005;28;20532;-82
2023/12/18 02:35:10;;;;;;;2.60;0.73;;;7.70;83.60;;;;;;4962194;28;20487;-82
2023/12/18 02:37:36;;;;;;;3.67;0.93;;;7.70;83.30;;;;;;4948017;28;20042;-83
2023/12/18 02:40:02;;;;;;;0.82;0.63;;;7.70;83.30;;;;;;4948320;28;20035;-81
2023/12/18 02:42:28;;;;;;;2.83;0.40;;;7.60;83.10;;;;;;4947299;28;20058;-82
2023/12/18 02:44:54;;;;;;;1.45;0.80;;;7.60;82.90;;;;;;4948157;28;20478;-82
2023/12/18 02:47:20;;;;;;;1.80;0.50;;;7.70;82.80;;;;;;4931135;29;20039;-81
2023/12/18 02:49:46;;;;;;;2.05;0.60;;;7.60;82.60;;;;;;4945959;29;20036;-81
2023/12/18 02:52:12;;;;;;;3.40;0.60;;;7.60;82.60;;;;;;4947935;28;20047;-81
2023/12/18 02:54:38;;;;;;;2.83;0.50;;;7.60;82.60;;;;;;4947657;28;20035;-81
2023/12/18 02:57:04;;;;;;;2.80;0.73;;;7.60;82.50;;;;;;4947641;29;20138;-81
2023/12/18 02:59:31;;;;;;;1.90;0.73;;;7.60;82.40;;;;;;4946284;29;20039;-82
2023/12/18 03:01:57;;;;;;;2.15;0.77;;;7.60;82.30;;;;;;4947490;28;20035;-81
2023/12/18 03:04:23;;;;;;;3.70;0.77;;;7.60;82.30;;;;;;4947389;28;20035;-80
2023/12/18 03:06:49;;;;;;;2.38;0.93;;;7.60;82.20;;;;;;4947348;28;20142;-81
2023/12/18 03:09:15;;;;;;;3.60;0.70;;;7.50;82.20;;;;;;4954054;28;20355;-81
2023/12/18 03:11:43;;;;;;;3.95;0.80;;;7.50;82.10;;;;;;4947379;28;20050;-81
2023/12/18 03:14:10;;;;;;;2.95;0.90;;;7.50;81.90;;;;;;4947114;28;20047;-82
2023/12/18 03:16:37;;;;;;;2.00;0.60;;;7.50;81.90;;;;;;4947803;28;20035;-83
2023/12/18 03:19:03;;;;;;;4.40;1.00;;;7.50;81.90;;;;;;4961897;28;20043;-82
2023/12/18 03:21:29;;;;;;;1.10;0.70;;;7.50;81.80;;;;;;4947927;29;20215;-83
2023/12/18 03:23:56;;;;;;;3.10;0.77;;;7.50;81.80;;;;;;4973025;28;20587;-84
2023/12/18 03:26:22;;;;;;;2.35;0.95;;;7.50;81.90;;;;;;4961189;28;20039;-82
2023/12/18 03:28:48;;;;;;;4.00;0.90;;;7.50;81.90;;;;;;4962443;28;20402;-84
2023/12/18 03:31:14;;;;;;;3.38;0.95;;;7.50;81.70;;;;;;4959407;28;20039;-82
2023/12/18 03:33:41;;;;;;;2.75;0.60;;;7.40;81.80;;;;;;4962233;28;20031;-82
2023/12/18 03:36:07;;;;;;;3.03;0.65;;;7.50;81.80;;;;;;4931075;29;20372;-81
2023/12/18 03:38:33;;;;;;;2.35;1.10;;;7.40;81.60;;;;;;4948080;28;20039;-82
2023/12/18 03:41:00;;;;;;;1.27;0.57;;;7.40;81.80;;;;;;4947681;28;20027;-82
2023/12/18 03:43:26;;;;;;;3.05;0.60;;;7.40;81.60;;;;;;4946946;28;20177;-81
2023/12/18 03:45:52;;;;;;;2.45;0.75;;;7.40;81.70;;;;;;4948291;28;20035;-81
2023/12/18 03:48:19;;;;;;;2.30;1.02;;;7.40;81.70;;;;;;4951357;29;20054;-81
2023/12/18 03:50:46;;;;;;;1.77;0.73;;;7.40;81.80;;;;;;4962382;28;20122;-81
2023/12/18 03:53:12;;;;;;;4.38;1.13;;;7.30;81.60;;;;;;4949442;28;20047;-81
2023/12/18 03:55:39;;;;;;;2.88;1.05;;;7.40;81.80;;;;;;4949087;29;20658;-81
2023/12/18 03:58:05;;;;;;;2.97;1.00;;;7.40;81.70;;;;;;4948905;29;20055;-82
2023/12/18 04:00:31;;;;;;;6.40;0.90;;;7.30;81.80;;;;;;4951096;28;20502;-81
2023/12/18 04:02:58;;;;;;;3.95;1.50;;;7.30;81.80;;;;;;4950958;28;20042;-81
2023/12/18 04:05:24;;;;;;;3.63;1.02;;;7.30;81.80;;;;;;4964043;28;20090;-82
2023/12/18 04:07:50;;;;;;;2.38;0.80;;;7.30;81.70;;;;;;4972383;28;20031;-82
2023/12/18 04:10:16;;;;;;;3.40;0.95;;;7.30;81.80;;;;;;4951111;28;20606;-82
2023/12/18 04:12:43;;;;;;;2.42;0.73;;;7.30;81.80;;;;;;4974278;28;21689;-82
2023/12/18 04:15:09;;;;;;;1.70;0.75;;;7.30;81.80;;;;;;4951225;29;20094;-82
2023/12/18 04:17:36;;;;;;;4.63;1.33;;;7.30;81.70;;;;;;4949060;29;20054;-81
2023/12/18 04:20:03;;;;;;;3.08;0.90;;;7.20;81.70;;;;;;4950394;28;20035;-80
2023/12/18 04:22:29;;;;;;;2.88;0.90;;;7.30;81.70;;;;;;4950378;28;20134;-82
2023/12/18 04:24:56;;;;;;;2.03;0.63;;;7.20;81.70;;;;;;4949516;28;20099;-81
2023/12/18 04:27:22;;;;;;;3.40;0.95;;;7.20;81.80;;;;;;4950954;28;20901;-82
2023/12/18 04:29:48;;;;;;;2.72;1.05;;;7.20;81.80;;;;;;4949843;28;20410;-83
2023/12/18 04:32:17;;;;;;;1.85;0.65;;;7.20;81.90;;;;;;4949346;28;20043;-83
2023/12/18 04:34:43;;;;;;;3.33;0.85;;;7.20;81.90;;;;;;4948270;28;21448;-81
2023/12/18 04:37:09;;;;;;;3.42;0.95;;;7.20;81.90;;;;;;4950235;28;20043;-84
2023/12/18 04:39:38;;;;;;;2.88;0.82;;;7.20;81.90;;;;;;4951166;28;20058;-80
2023/12/18 04:42:05;;;;;;;1.67;0.93;;;7.20;81.90;;;;;;4949126;28;20430;-81
2023/12/18 04:44:31;;;;;;;5.03;1.50;;;7.20;82.00;;;;;;4957726;28;20118;-83
2023/12/18 04:46:57;;;;;;;1.45;0.90;;;7.20;82.00;;;;;;4948624;29;20027;-80
2023/12/18 04:49:25;;;;;;;3.05;0.95;;;7.20;82.10;;;;;;4965074;28;21483;-83
2023/12/18 04:51:51;;;;;;;1.92;0.88;;;7.20;82.10;;;;;;4960216;28;20124;-83
2023/12/18 04:54:17;;;;;;;3.95;0.93;;;7.20;82.20;;;;;;4950682;29;20027;-82
2023/12/18 04:56:43;;;;;;;3.00;1.30;;;7.20;82.20;;;;;;4947451;28;20067;-80
2023/12/18 04:59:10;;;;;;;4.20;1.13;;;7.20;82.30;;;;;;4948744;28;20067;-83
2023/12/18 05:01:36;;;;;;;4.03;1.10;;;7.10;82.10;;;;;;4948299;28;20031;-86
2023/12/18 05:04:03;;;;;;;4.72;1.15;;;7.10;82.20;;;;;;4948967;28;20032;-82
2023/12/18 05:06:29;;;;;;;2.55;1.17;;;7.10;82.30;;;;;;4931994;29;20117;-84
2023/12/18 05:08:55;;;;;;;3.67;1.10;;;7.20;82.40;;;;;;4931479;29;20178;-84
2023/12/18 05:11:25;;;;;;;3.85;1.13;;;7.10;82.90;;;;;;4949431;28;20094;-85
2023/12/18 05:13:52;;;;;;;3.65;1.00;;;7.10;82.80;;;;;;4959403;28;20031;-83
2023/12/18 05:16:18;;;;;;;4.28;1.10;;;7.20;82.90;;;;;;4948367;28;20031;-83
2023/12/18 05:18:45;;;;;;;2.78;1.30;;;7.10;83.40;;;;;;4946838;28;20058;-82
2023/12/18 05:21:11;;;;;;;2.95;1.23;;;7.20;82.80;;;;;;4955995;28;20031;-84
2023/12/18 05:23:38;;;;;;;2.45;1.48;;;7.10;82.80;;;;;;4949353;28;20050;-86
2023/12/18 05:26:04;;;;;;;4.38;1.90;;;7.10;82.80;;;;;;4949054;28;20086;-83
2023/12/18 05:28:30;;;;;;;5.78;1.48;;;7.10;82.90;;;;;;4948951;28;20387;-87
2023/12/18 05:30:56;;;;;;;7.75;1.90;;;7.10;82.80;;;;;;4947826;28;20090;-83
2023/12/18 05:33:22;;;;;;;4.40;1.38;;;7.10;82.80;;;;;;4949025;28;20165;-84
2023/12/18 05:35:48;;;;;;;2.80;1.30;;;7.10;82.90;;;;;;4947959;28;20031;-82
2023/12/18 05:38:14;;;;;;;3.78;1.55;;;7.10;82.90;;;;;;4931542;29;20442;-84
2023/12/18 05:40:40;;;;;;;2.33;1.30;;;7.10;83.10;;;;;;4947725;28;20039;-84
2023/12/18 05:43:07;;;;;;;2.78;1.45;;;7.10;83.10;;;;;;4948551;28;20086;-82
2023/12/18 05:45:33;;;;;;;3.83;1.00;;;7.10;83.30;;;;;;4948697;29;20023;-86
2023/12/18 05:48:00;;;;;;;2.95;1.15;;;7.10;83.40;;;;;;4959057;28;20039;-85
2023/12/18 05:50:27;;;;;;;2.97;1.23;;;7.10;83.40;;;;;;4957125;28;20400;-85
2023/12/18 05:52:53;;;;;;;2.63;1.13;;;7.10;83.30;;;;;;4933733;29;20053;-87
2023/12/18 05:55:19;;;;;;;3.65;1.48;;;7.10;83.50;;;;;;4946799;28;20118;-76
2023/12/18 05:57:45;;;;;;;2.80;1.15;;;7.10;84.40;;;;;;4947537;28;20140;-84
2023/12/18 06:00:11;;;;;;;5.53;1.60;;;7.20;87.60;;;;;;4938292;28;20035;-81
2023/12/18 06:02:37;;;;;;;3.15;0.82;;;7.30;89.50;;;;;;4971519;28;20043;-82
2023/12/18 06:05:04;;;;;;;3.40;1.08;;;7.40;89.90;;;;;;4929881;29;20048;-80
2023/12/18 06:07:30;;;;;;;3.25;1.35;;;7.50;90.00;;;;;;4947724;28;20039;-80
2023/12/18 06:09:56;;;;;;;2.47;1.40;;;7.50;89.60;;;;;;4947875;28;20035;-80
2023/12/18 06:12:22;;;;;;;3.33;0.93;;;7.50;89.10;;;;;;4948066;29;21003;-79
2023/12/18 06:14:48;;;;;;;4.78;1.30;;;7.50;88.40;;;;;;4946160;28;20072;-80
2023/12/18 06:17:14;;;;;;;5.63;1.10;;;7.60;87.80;;;;;;4946470;28;20046;-80
2023/12/18 06:19:40;;;;;;;2.97;1.52;;;7.60;87.30;;;;;;4948247;28;20073;-80
2023/12/18 06:22:09;;;;;;;4.70;2.38;;;7.60;86.80;;;;;;4946864;28;20039;-81
2023/12/18 06:24:39;;;;;;;4.43;2.05;;;7.60;86.50;;;;;;4929921;28;20478;-81
2023/12/18 06:27:05;;;;;;;3.72;1.80;;;7.60;86.00;;;;;;4947933;28;20023;-82
2023/12/18 06:29:31;;;;;;;4.88;2.10;;;7.60;85.70;;;;;;4946622;28;20027;-82
2023/12/18 06:31:57;;;;;;;3.28;1.60;;;7.60;85.60;;;;;;4947906;28;20090;-81
2023/12/18 06:34:23;;;;;;;3.38;1.67;;;7.60;85.40;;;;;;4946443;28;20065;-78
2023/12/18 06:36:49;;;;;;;4.15;1.80;;;7.60;85.30;;;;;;4952643;28;20536;-85
2023/12/18 06:39:15;;;;;;;3.50;1.70;;;7.60;85.10;;;;;;4952785;29;20039;-83
2023/12/18 06:41:41;;;;;;;3.17;1.70;;;7.60;85.00;;;;;;4948719;28;20240;-83
2023/12/18 06:44:07;;;;;;;2.40;1.70;;;7.60;84.90;;;;;;4966117;28;20032;-83
2023/12/18 06:46:34;;;;;;;3.30;1.60;;;7.70;85.10;;;;;;4950184;28;20122;-84
2023/12/18 06:49:02;;;;;;;4.60;1.33;;;7.60;84.90;;;;;;4951866;28;20960;-84
2023/12/18 06:51:28;;;;;;;3.17;1.30;;;7.70;84.80;;;;;;4960442;28;20031;-84
2023/12/18 06:53:54;;;;;;;4.32;1.60;;;7.70;84.80;;;;;;4952797;28;20077;-84
2023/12/18 06:56:20;;;;;;;2.65;1.20;;;7.70;84.60;;;;;;4920402;29;20038;-84
2023/12/18 06:58:46;;;;;;;2.42;1.38;;;7.70;84.40;;;;;;4935703;29;20043;-83
2023/12/18 07:01:16;;;;;;;2.90;1.55;;;7.70;84.30;;;;;;4923688;29;20067;-84
2023/12/18 07:03:42;;;;;;;4.32;1.48;;;7.70;84.20;;;;;;4944849;28;20035;-84
2023/12/18 07:06:08;;;;;;;1.98;0.98;;;7.70;84.20;;;;;;4947561;29;20031;-84
2023/12/18 07:08:34;;;;;;;2.20;1.17;;;7.70;84.10;;;;;;4946949;28;20032;-84
2023/12/18 07:11:00;;;;;;;1.92;1.30;;;7.70;84.10;;;;;;4921149;29;20576;-84
2023/12/18 07:13:26;;;;;;;2.65;1.08;;;7.70;84.10;;;;;;4929454;29;20644;-85
2023/12/18 07:15:52;;;;;;;1.35;1.20;;;7.70;84.00;;;;;;4944905;28;20059;-84
2023/12/18 07:18:18;;;;;;;2.30;1.10;;;7.70;84.00;;;;;;4914679;28;20600;-81
2023/12/18 07:20:45;;;;;;;2.80;1.50;;;7.80;83.90;;;;;;4949381;28;20395;-82
2023/12/18 07:23:11;;;;;;;2.75;1.40;;;7.70;83.80;;;;;;4950241;28;20637;-82
2023/12/18 07:25:38;;;;;;;2.13;1.17;;;7.70;83.80;;;;;;4950073;28;20035;-83
2023/12/18 07:28:09;;;;;;;2.63;1.13;;;7.70;83.80;;;;;;4963360;28;20098;-80
2023/12/18 07:30:39;;;;;;;1.52;1.10;;;7.80;83.80;;;;;;4965686;28;21116;-84
2023/12/18 07:33:05;;;;;;;1.75;1.02;;;7.80;83.70;;;;;;4965766;28;20098;-84
2023/12/18 07:35:31;;;;;;;1.20;1.00;;;7.80;83.60;;;;;;4950229;28;20062;-87
2023/12/18 07:37:57;;;;;;;2.42;1.10;;;7.80;83.40;;;;;;4948118;29;20095;-80
2023/12/18 07:40:23;;;;;;;2.00;1.20;;;7.80;83.30;;;;;;4952957;28;20082;-80
2023/12/18 07:42:49;;;;;;;3.53;1.13;;;7.80;83.30;;;;;;4942874;28;20471;-82
2023/12/18 07:45:16;;;;;;;2.05;1.30;;;7.80;83.20;;;;;;4949951;28;20046;-81
2023/12/18 07:47:42;;;;;;;2.92;1.70;;;7.80;83.20;;;;;;4948978;28;20039;-80
2023/12/18 07:50:09;;;;;;;2.25;1.35;;;7.80;83.20;;;;;;4949703;28;20039;-79
2023/12/18 07:52:35;;;;;;;2.38;1.35;;;7.80;83.70;;;;;;4949919;29;20577;-85
2023/12/18 07:55:02;;;;;;;4.07;1.50;;;7.80;83.10;;;;;;4951159;28;20039;-84
2023/12/18 07:57:30;;;;;;;2.90;1.35;;;7.80;83.20;;;;;;4948509;29;20050;-83
2023/12/18 07:59:56;;;;;;;1.23;1.10;;;7.80;83.20;;;;;;4949143;28;20113;-81
2023/12/18 08:02:22;;;;;;;1.80;0.85;;;7.80;83.20;;;;;;4949087;28;20534;-85
2023/12/18 08:04:48;;;;;;;5.03;1.60;;;7.80;83.20;;;;;;4949916;28;20042;-83
2023/12/18 08:07:14;;;;;;;2.15;1.10;;;7.80;83.20;;;;;;4959678;28;20406;-83
2023/12/18 08:09:41;;;;;;;2.80;1.50;;;7.80;83.10;;;;;;4932917;28;20038;-84
2023/12/18 08:12:07;;;;;;;2.08;1.48;;;7.80;83.60;;;;;;4949541;28;20596;-83
2023/12/18 08:14:33;;;;;;;2.10;1.08;;;7.80;82.90;;;;;;4949074;28;20066;-85
2023/12/18 08:16:59;;;;;;;4.15;1.27;;;7.80;82.80;;;;;;4948131;28;20066;-84
2023/12/18 08:19:26;;;;;;;2.08;1.00;;;7.80;82.70;;;;;;4948047;28;20498;-85
2023/12/18 08:21:52;;;;;;;2.05;1.13;;;7.90;82.70;;;;;;4948011;28;20142;-87
2023/12/18 08:24:18;;;;;;;1.75;1.33;;;7.80;82.70;;;;;;4950698;28;20121;-85
2023/12/18 08:27:08;;;;;;;2.60;1.50;;;7.90;82.60;;;;;;4950392;28;20039;-87
2023/12/18 08:29:34;;;;;;;3.08;1.35;;;7.90;82.70;;;;;;4974895;28;20399;-87
2023/12/18 08:32:00;;;;;;;3.33;1.00;;;7.90;82.60;;;;;;4949049;28;20035;-86
2023/12/18 08:34:26;;;;;;;3.10;1.17;;;7.90;82.60;;;;;;4933489;29;20032;-86
2023/12/18 08:36:53;;;;;;;1.95;1.23;;;7.90;82.70;;;;;;4959517;28;20039;-89
2023/12/18 08:39:19;;;;;;;2.50;1.15;;;7.90;82.70;;;;;;4951401;29;20156;-83
2023/12/18 08:41:47;;;;;;;2.90;1.42;;;7.90;82.80;;;;;;4963351;28;20035;-84
2023/12/18 08:44:13;;;;;;;3.78;1.40;;;7.90;83.00;;;;;;4949691;28;20423;-87
2023/12/18 08:46:39;;;;;;;3.00;1.55;;;7.90;82.90;;;;;;4950084;28;20062;-87
2023/12/18 08:49:05;;;;;;;1.50;1.30;;;7.90;82.90;;;;;;4963702;28;20540;-83
2023/12/18 08:51:31;;;;;;;3.65;1.50;;;7.90;82.90;;;;;;4949192;29;20041;-84
2023/12/18 08:53:57;;;;;;;2.20;1.00;;;7.90;83.00;;;;;;4973992;28;20031;-82
2023/12/18 08:56:25;;;;;;;2.35;1.40;;;7.90;83.00;;;;;;4963247;28;20524;-84
2023/12/18 08:58:52;;;;;;;1.40;0.98;;;7.90;83.00;;;;;;4949326;28;20126;-87
2023/12/18 09:01:18;;;;;;;2.08;1.27;;;7.90;83.00;;;;;;4949530;28;20102;-91
2023/12/18 09:03:50;;;;;;;2.97;1.48;;;8.00;83.10;;;;;;4951761;28;20110;-89
2023/12/18 09:06:16;;;;;;;2.55;1.15;;;7.90;83.10;;;;;;4959809;28;20117;-89
2023/12/18 09:08:42;;;;;;;2.17;1.10;;;7.90;83.00;;;;;;4949973;28;20576;-89
2023/12/18 09:11:08;;;;;;;1.63;1.13;;;7.90;83.00;;;;;;4930339;29;20036;-93
2023/12/18 09:13:38;;;;;;;1.95;1.20;;;8.00;82.90;;;;;;4964292;28;20042;-92
2023/12/18 09:16:05;;;;;;;1.92;1.40;;;8.00;83.00;;;;;;4947952;28;20526;-85
2023/12/18 09:18:31;;;;;;;1.27;1.10;;;7.90;82.90;;;;;;4948417;29;20039;-84
2023/12/18 09:20:57;;;;;;;1.85;1.25;;;8.00;83.10;;;;;;4946905;29;20305;-85
2023/12/18 09:23:25;;;;;;;2.00;1.10;;;8.00;83.20;;;;;;4945981;28;20442;-81
2023/12/18 09:25:51;;;;;;;2.30;1.30;;;8.00;83.30;;;;;;4949794;28;20035;-86
2023/12/18 09:28:17;;;;;;;1.88;0.88;;;7.90;83.20;;;;;;4951049;28;20075;-86
2023/12/18 09:30:43;;;;;;;1.38;0.93;;;8.00;83.20;;;;;;4949899;28;20035;-87
2023/12/18 09:33:09;;;;;;;3.33;1.17;;;8.00;83.20;;;;;;4933215;29;20027;-86
2023/12/18 09:35:35;;;;;;;2.95;1.20;;;8.00;83.30;;;;;;4948526;28;20039;-88
2023/12/18 09:38:02;;;;;;;2.97;1.05;;;8.00;83.20;;;;;;4948641;28;20414;-83
2023/12/18 09:40:28;;;;;;;3.10;1.42;;;8.00;83.40;;;;;;4947250;28;20466;-84
2023/12/18 09:42:54;;;;;;;1.50;1.10;;;8.00;83.30;;;;;;4946273;28;20027;-83
2023/12/18 09:45:22;;;;;;;1.95;1.05;;;8.00;83.60;;;;;;4948550;29;20035;-84
2023/12/18 09:47:51;;;;;;;2.00;0.98;;;8.00;83.70;;;;;;4948352;28;20514;-85
2023/12/18 09:50:18;;;;;;;2.03;1.13;;;8.00;83.80;;;;;;4948295;28;20071;-89
2023/12/18 09:53:07;;;;;;;1.10;1.00;;;8.00;83.70;;;;;;4947663;28;20153;-84
2023/12/18 09:55:34;;;;;;;2.03;1.17;;;8.10;83.80;;;;;;4946662;28;20039;-84
2023/12/18 09:58:00;;;;;;;1.30;1.20;;;8.10;83.70;;;;;;4938727;28;20053;-86
2023/12/18 10:00:28;;;;;;;2.33;1.10;;;8.10;83.80;;;;;;4931214;29;20051;-86
2023/12/18 10:02:56;;;;;;;2.17;1.25;;;8.10;83.60;;;;;;4943697;28;20122;-86
2023/12/18 10:05:22;;;;;;;2.70;1.42;;;8.10;83.60;;;;;;4947454;28;20497;-90
2023/12/18 10:07:49;;;;;;;2.92;1.30;;;8.10;83.60;;;;;;4948917;28;20502;-90
2023/12/18 10:10:15;;;;;;;1.45;1.00;;;8.10;83.60;;;;;;4948758;28;20075;-89
2023/12/18 10:12:41;;;;;;;1.80;1.10;;;8.10;83.60;;;;;;4939212;28;20494;-86
2023/12/18 10:15:17;;;;;;;2.08;1.30;;;8.10;83.50;;;;;;4930637;29;20078;-85
2023/12/18 10:17:43;;;;;;;1.90;1.13;;;8.10;83.50;;;;;;4962035;28;20043;-83
2023/12/18 10:20:12;;;;;;;1.45;1.10;;;8.10;83.50;;;;;;4946580;28;20117;-83
2023/12/18 10:22:41;;;;;;;1.92;0.98;;;8.10;83.60;;;;;;4941207;29;20027;-81
2023/12/18 10:25:12;;;;;;;1.50;0.93;;;8.10;83.50;;;;;;4944251;28;20035;-82
2023/12/18 10:27:38;;;;;;;1.67;1.13;;;8.10;83.70;;;;;;4946440;28;20035;-81
2023/12/18 10:30:08;;;;;;;2.55;1.20;;;8.10;83.80;;;;;;4961860;28;20027;-81
2023/12/18 10:32:39;;;;;;;3.38;1.70;;;8.10;83.90;;;;;;4929669;29;20067;-82
2023/12/18 10:35:06;;;;;;;1.77;1.38;;;8.20;83.90;;;;;;4946022;28;20880;-81
2023/12/18 10:37:33;;;;;;;4.22;1.85;;;8.10;83.90;;;;;;4929901;29;20203;-81
2023/12/18 10:40:09;;;;;;;2.72;1.48;;;8.20;84.00;;;;;;4952782;28;20046;-81
2023/12/18 10:42:36;;;;;;;2.00;1.20;;;8.20;84.10;;;;;;4947215;29;20031;-82
2023/12/18 10:45:06;;;;;;;2.90;2.00;;;8.20;83.90;;;;;;4947537;29;20039;-82
2023/12/18 10:47:33;;;;;;;2.35;1.83;;;8.20;83.80;;;;;;4962304;28;20070;-82
2023/12/18 10:50:04;;;;;;;2.97;1.52;;;8.20;83.70;;;;;;4970814;28;20036;-82
2023/12/18 10:52:32;;;;;;;2.00;1.70;;;8.20;83.70;;;;;;4929945;29;20039;-81
2023/12/18 10:55:03;;;;;;;3.58;1.63;;;8.20;83.80;;;;;;4942857;28;20459;-83
2023/12/18 10:57:32;;;;;;;2.90;1.77;;;8.20;83.90;;;;;;4961694;28;20425;-82
2023/12/18 10:59:59;;;;;;;2.20;1.58;;;8.20;83.90;;;;;;4945269;28;20399;-81
2023/12/18 11:02:26;;;;;;;2.53;1.63;;;8.20;83.90;;;;;;4945886;28;20071;-80
2023/12/18 11:04:56;;;;;;;2.88;1.88;;;8.20;83.90;;;;;;4944624;28;20070;-81
2023/12/18 11:07:24;;;;;;;2.60;1.70;;;8.20;83.90;;;;;;4929590;29;20054;-81
2023/12/18 11:09:52;;;;;;;2.45;1.50;;;8.20;83.90;;;;;;4946648;28;20035;-83
2023/12/18 11:12:19;;;;;;;2.10;1.40;;;8.20;84.00;;;;;;4946209;29;20063;-82
2023/12/18 11:14:51;;;;;;;1.83;1.40;;;8.20;84.00;;;;;;4969259;28;20676;-81
2023/12/18 11:17:55;;;;;;;2.72;1.50;;;8.20;84.00;;;;;;4946427;28;20145;-82
2023/12/18 11:20:33;;;;;;;2.83;1.73;;;8.20;83.80;;;;;;4945162;28;20035;-82
2023/12/18 11:23:01;;;;;;;3.35;1.95;;;8.20;83.80;;;;;;4945878;28;20043;-82
2023/12/18 11:25:47;;;;;;;2.33;1.50;;;8.20;83.80;;;;;;4944715;28;20032;-81
2023/12/18 11:28:14;;;;;;;;;;;8.30;83.90;;;;;;4946179;28;20038;-81
2023/12/18 11:30:44;;;;;;;1.98;1.50;;;8.30;83.90;;;;;;4947567;28;20056;-81
2023/12/18 11:33:13;;;;;;;1.73;1.17;;;8.30;83.70;;;;;;4946998;29;20031;-81
2023/12/18 11:35:44;;;;;;;2.15;1.40;;;8.30;83.80;;;;;;4947378;28;20054;-81
2023/12/18 11:38:15;;;;;;;1.40;1.10;;;8.30;83.80;;;;;;4946820;28;20057;-82
2023/12/18 11:40:43;;;;;;;1.55;1.33;;;8.30;83.90;;;;;;4929658;29;20461;-82
2023/12/18 11:43:13;;;;;;;3.03;1.80;;;8.30;83.90;;;;;;4945597;28;20043;-81
2023/12/18 11:45:44;;;;;;;2.25;1.38;;;8.30;84.00;;;;;;4945794;28;20087;-81
2023/12/18 11:48:17;;;;;;;2.10;1.60;;;8.30;84.00;;;;;;4947134;29;20027;-81
2023/12/18 11:50:43;;;;;;;1.40;1.02;;;8.30;83.90;;;;;;4944969;29;20102;-81
2023/12/18 11:53:32;;;;;;;2.25;1.45;;;8.30;83.90;;;;;;4945358;28;20434;-82
2023/12/18 11:55:58;;;;;;;1.42;1.33;;;8.30;84.00;;;;;;4926775;28;20502;-83
2023/12/18 11:58:26;;;;;;;2.17;1.42;;;8.30;84.00;;;;;;4945848;28;20557;-83
2023/12/18 12:00:54;;;;;;;1.20;1.10;;;8.30;84.00;;;;;;4946415;28;20122;-80
2023/12/18 12:03:22;;;;;;;1.90;1.45;;;8.30;84.00;;;;;;4948404;28;20043;-81
2023/12/18 12:05:49;;;;;;;2.05;1.38;;;8.30;84.00;;;;;;4945119;28;20046;-79
2023/12/18 12:08:15;;;;;;;1.80;1.35;;;8.30;84.10;;;;;;4945880;28;20031;-76
2023/12/18 12:10:46;;;;;;;2.42;1.67;;;8.30;84.00;;;;;;4948978;28;20051;-79
2023/12/18 12:13:23;;;;;;;1.15;1.05;;;8.30;83.90;;;;;;4939963;28;20028;-79
2023/12/18 12:15:56;;;;;;;1.88;1.45;;;8.30;83.80;;;;;;4963604;28;20031;-81
2023/12/18 12:18:26;;;;;;;1.92;1.52;;;8.30;83.70;;;;;;4932724;29;20050;-80
2023/12/18 12:20:53;;;;;;;1.85;1.33;;;8.30;83.70;;;;;;4948814;28;20039;-80
2023/12/18 12:23:19;;;;;;;1.42;1.08;;;8.30;83.70;;;;;;4949047;28;20043;-80
2023/12/18 12:25:48;;;;;;;2.05;1.25;;;8.30;83.70;;;;;;4947559;28;20038;-80
2023/12/18 12:28:15;;;;;;;1.13;1.02;;;8.30;83.60;;;;;;4947399;28;20039;-80
2023/12/18 12:30:45;;;;;;;1.80;1.52;;;8.30;83.60;;;;;;4932062;28;20031;-79
2023/12/18 12:33:12;;;;;;;3.38;1.90;;;8.30;83.70;;;;;;4949249;29;20118;-80
2023/12/18 12:35:40;;;;;;;2.83;1.90;;;8.30;83.80;;;;;;4963365;28;20514;-79
2023/12/18 12:38:07;;;;;;;2.58;1.58;;;8.30;83.50;;;;;;4947927;29;20055;-79
2023/12/18 12:40:42;;;;;;;2.15;1.92;;;8.30;83.50;;;;;;4949731;28;20114;-81
2023/12/18 12:43:10;;;;;;;3.17;2.20;;;8.30;83.70;;;;;;4948209;28;20050;-79
2023/12/18 12:45:37;;;;;;;4.25;2.10;;;8.30;83.50;;;;;;4932961;29;20039;-81
2023/12/18 12:48:08;;;;;;;3.05;2.25;;;8.30;83.40;;;;;;4949364;29;20043;-80
2023/12/18 12:50:38;;;;;;;2.17;1.83;;;8.30;83.30;;;;;;4949394;28;20043;-80
2023/12/18 12:53:09;;;;;;;1.95;1.75;;;8.30;83.20;;;;;;4950482;28;20058;-79
2023/12/18 12:55:38;;;;;;;2.03;1.63;;;8.30;83.20;;;;;;4949493;28;20046;-79
2023/12/18 12:58:05;;;;;;;2.28;1.60;;;8.30;83.10;;;;;;4962722;28;20134;-80